Forside
METAR-TAF:

METAR-TAF

Lufthavne :

Arctic Bay, Nunavut, Canada

Breddekreds: 73-00-23N, længdekreds: 085-02-50W, højde: 22 m

Aktuelle vejr

Denne rapport blev lavet for 2 timer og 31 minutter siden, kl. 23:00 UTC
Vind 2 kt fra varierende retninger
Temperatur -33°C
Fugtighed 67%
Tryk 1012 hPa
Sigt: 32.2 km
Nogle få skyer i en højde af 300 ft
Nogle få skyer i en højde af 1400 ft
Nogle få skyer i en højde af 3500 ft
Nogle få skyer i en højde af 21000 ft

METAR: CYAB 232300Z VRB02KT 20SM FEW003 FEW014 FEW035 FEW210 M33/M37 A2988 RMK SC1SC1SC1CI1 SC TR SC TR CI TR LAST STFD OBS/NEXT 251200Z SLP125

Tid: 20:31 (01:31 UTC)

Vejrudsigter

Denne rapport blev lavet for 4 timer og 48 minutter siden, kl. 20:43 UTC
Foreløbig gælder fra 23 på 20 UTC til 23 på 23 UTC
Vind 3 kt fra varierende retninger
Sigt: 10 km
Nogle få skyer i en højde af 1500 ft
Nogle få skyer i en højde af 22000 ft

TAF: CYAB 232043Z 2320/2323 VRB03KT P6SM FEW015 FEW220 RMK NXT FCST WILL BE ISSUED AT 251345Z

Vejrobservationer og prognoser fra mere end 4000 lufthavne (METAR og TAF).

De gule og røde prikker repræsenterer de meteorologiske stationer.

Flyt musen over at se navnet på stationen.

Så klik over at se vejr observationer og prognoser.

At skifte det kort: Klik på de grønne knapper med et sort kors for at zoome ind; på den grønne knap med en bindestreg for at zoome ud; eller på de grønne pile for tilstødende kort.


METAR-TAF: